createdAt,value
2019-05-19T00:01:36.792Z,13.81
2019-05-19T00:04:06.910Z,13.83
2019-05-19T00:06:36.863Z,13.84
2019-05-19T00:09:07.335Z,13.83
2019-05-19T00:11:37.250Z,13.80
2019-05-19T00:14:07.079Z,13.78
2019-05-19T00:16:36.994Z,13.80
2019-05-19T00:19:06.968Z,13.80
2019-05-19T00:21:36.859Z,13.84
2019-05-19T00:24:06.664Z,13.84
2019-05-19T00:26:36.342Z,13.83
2019-05-19T00:29:06.138Z,13.83
2019-05-19T00:31:35.808Z,13.82
2019-05-19T00:34:05.817Z,13.83
2019-05-19T00:36:35.461Z,13.83
2019-05-19T00:39:06.722Z,13.81
2019-05-19T00:41:36.356Z,13.79
2019-05-19T00:44:06.149Z,13.77
2019-05-19T00:46:36.081Z,13.70
2019-05-19T00:49:05.860Z,13.72
2019-05-19T00:51:36.149Z,13.70
2019-05-19T00:54:06.204Z,13.66
2019-05-19T00:56:36.633Z,13.62
2019-05-19T00:59:08.110Z,13.60
2019-05-19T01:01:37.859Z,13.59
2019-05-19T01:04:07.793Z,13.57
2019-05-19T01:06:37.617Z,13.55
2019-05-19T01:09:08.457Z,13.60
2019-05-19T01:11:38.205Z,13.62
2019-05-19T01:14:08.126Z,13.66
2019-05-19T01:16:37.887Z,13.68
2019-05-19T01:19:07.723Z,13.75
2019-05-19T01:21:39.298Z,13.75
2019-05-19T01:24:09.340Z,13.77
2019-05-19T01:26:39.112Z,13.76
2019-05-19T01:29:08.863Z,13.73
2019-05-19T01:31:38.713Z,13.67
2019-05-19T01:34:08.528Z,13.56
2019-05-19T01:36:38.353Z,13.41
2019-05-19T01:39:08.409Z,13.38
2019-05-19T01:41:38.152Z,13.33
2019-05-19T01:44:08.267Z,13.36
2019-05-19T01:46:37.853Z,13.37
2019-05-19T01:49:07.559Z,13.37
2019-05-19T01:51:37.441Z,13.31
2019-05-19T01:54:07.529Z,13.29
2019-05-19T01:56:40.228Z,13.29
2019-05-19T01:59:10.077Z,13.27
2019-05-19T02:01:39.969Z,13.21
2019-05-19T02:04:10.168Z,13.21
2019-05-19T02:06:39.979Z,13.19
2019-05-19T02:09:10.149Z,13.18
2019-05-19T02:11:39.955Z,13.18
2019-05-19T02:14:09.768Z,13.13
2019-05-19T02:16:40.086Z,13.10
2019-05-19T02:19:09.973Z,13.02
2019-05-19T02:21:39.769Z,12.96
2019-05-19T02:24:09.521Z,12.91
2019-05-19T02:26:39.291Z,12.88
2019-05-19T02:29:09.107Z,12.86
2019-05-19T02:31:38.724Z,12.87
2019-05-19T02:34:08.534Z,12.87
2019-05-19T02:36:38.312Z,12.83
2019-05-19T02:39:08.362Z,12.79
2019-05-19T02:41:40.286Z,12.82
2019-05-19T02:44:10.193Z,12.82
2019-05-19T02:46:40.986Z,12.82
2019-05-19T02:49:12.258Z,12.83
2019-05-19T02:51:43.462Z,12.84
2019-05-19T02:54:14.427Z,12.82
2019-05-19T02:56:47.185Z,12.81
2019-05-19T02:59:18.718Z,12.79
2019-05-19T03:02:08.170Z,12.79
2019-05-19T03:04:38.173Z,12.79
2019-05-19T03:07:08.208Z,12.74
2019-05-19T03:09:38.202Z,12.72
2019-05-19T03:12:08.201Z,12.69
2019-05-19T03:14:38.150Z,12.73
2019-05-19T03:17:08.140Z,12.75
2019-05-19T03:19:38.261Z,12.75
2019-05-19T03:22:08.242Z,12.77
2019-05-19T03:24:38.001Z,12.79
2019-05-19T03:27:07.854Z,12.78
2019-05-19T03:29:39.416Z,12.82
2019-05-19T03:32:19.799Z,12.86
2019-05-19T03:34:50.917Z,12.87
2019-05-19T03:37:20.997Z,12.85
2019-05-19T03:39:51.252Z,12.82
2019-05-19T03:42:21.562Z,12.79
2019-05-19T03:44:52.253Z,12.76
2019-05-19T03:47:22.971Z,12.73
2019-05-19T03:49:53.696Z,12.73
2019-05-19T03:52:24.160Z,12.72
2019-05-19T03:54:54.602Z,12.70
2019-05-19T03:57:25.306Z,12.67
2019-05-19T03:59:55.724Z,12.67
2019-05-19T04:02:26.572Z,12.65
2019-05-19T04:04:57.165Z,12.68
2019-05-19T04:07:27.828Z,12.72
2019-05-19T04:09:58.238Z,12.71
2019-05-19T04:12:28.777Z,12.69
2019-05-19T04:14:59.466Z,12.66
2019-05-19T04:17:29.940Z,12.65
2019-05-19T04:20:00.885Z,12.64
2019-05-19T04:22:31.611Z,12.64
2019-05-19T04:25:02.216Z,12.68
2019-05-19T04:27:32.548Z,12.72
2019-05-19T04:30:03.507Z,12.75
2019-05-19T04:32:34.119Z,12.73
2019-05-19T04:35:05.543Z,12.72
2019-05-19T04:37:36.182Z,12.70
2019-05-19T04:40:08.202Z,12.74
2019-05-19T04:42:38.741Z,12.76
2019-05-19T04:45:09.216Z,12.78
2019-05-19T04:47:39.645Z,12.82
2019-05-19T04:50:10.324Z,12.83
2019-05-19T04:52:40.821Z,12.85
2019-05-19T04:55:11.745Z,12.83
2019-05-19T04:57:42.155Z,12.86
2019-05-19T05:00:12.403Z,12.88
2019-05-19T05:02:42.774Z,12.89
2019-05-19T05:05:14.014Z,12.90
2019-05-19T05:07:44.585Z,12.90
2019-05-19T05:10:15.453Z,12.89
2019-05-19T05:12:46.008Z,12.91
2019-05-19T05:15:17.165Z,12.94
2019-05-19T05:17:47.907Z,12.98
2019-05-19T05:20:18.817Z,13.02
2019-05-19T05:22:49.201Z,13.06
2019-05-19T05:25:20.627Z,13.09
2019-05-19T05:27:51.715Z,13.11
2019-05-19T05:30:22.236Z,13.12
2019-05-19T05:32:52.690Z,13.11
2019-05-19T05:35:23.133Z,13.09
2019-05-19T05:37:53.684Z,13.11
2019-05-19T05:40:24.131Z,13.11
2019-05-19T05:42:55.292Z,13.13
2019-05-19T05:45:25.714Z,13.11
2019-05-19T05:47:56.466Z,13.12
2019-05-19T05:50:26.791Z,13.14
2019-05-19T05:52:57.462Z,13.17
2019-05-19T05:55:27.851Z,13.19
2019-05-19T05:57:58.165Z,13.18
2019-05-19T06:00:28.621Z,13.19
2019-05-19T06:02:58.747Z,13.21
2019-05-19T06:05:29.369Z,13.22
2019-05-19T06:08:00.106Z,13.24
2019-05-19T06:10:30.497Z,13.27
2019-05-19T06:13:00.933Z,13.29
2019-05-19T06:15:31.511Z,13.32
2019-05-19T06:18:01.867Z,13.36
2019-05-19T06:20:32.593Z,13.40
2019-05-19T06:23:03.128Z,13.41
2019-05-19T06:25:33.762Z,13.41
2019-05-19T06:28:04.475Z,13.43
2019-05-19T06:30:35.062Z,13.48
2019-05-19T06:33:05.699Z,13.53
2019-05-19T06:35:36.687Z,13.55
2019-05-19T06:38:07.597Z,13.57
2019-05-19T06:40:38.086Z,13.59
2019-05-19T06:43:08.679Z,13.59
2019-05-19T06:45:39.138Z,13.61
2019-05-19T06:48:09.579Z,13.64
2019-05-19T06:50:40.984Z,13.60
2019-05-19T06:53:14.487Z,13.64
2019-05-19T06:55:43.689Z,13.64
2019-05-19T06:58:14.114Z,13.61
2019-05-19T07:00:45.206Z,13.64
2019-05-19T07:03:15.543Z,13.66
2019-05-19T07:05:46.225Z,13.65
2019-05-19T07:08:16.827Z,13.70
2019-05-19T07:10:47.772Z,13.76
2019-05-19T07:13:18.159Z,13.77
2019-05-19T07:15:48.615Z,13.81
2019-05-19T07:18:19.262Z,13.82
2019-05-19T07:20:50.289Z,13.89
2019-05-19T07:23:28.314Z,13.96
2019-05-19T07:25:52.735Z,13.96
2019-05-19T07:28:23.691Z,13.94
2019-05-19T07:30:54.045Z,13.94
2019-05-19T07:33:24.321Z,13.95
2019-05-19T07:35:55.066Z,13.98
2019-05-19T07:38:25.354Z,13.97
2019-05-19T07:40:55.869Z,13.98
2019-05-19T07:43:26.381Z,14.01
2019-05-19T07:45:56.932Z,13.94
2019-05-19T07:48:27.384Z,13.88
2019-05-19T07:50:58.088Z,13.80
2019-05-19T07:53:42.212Z,13.78
2019-05-19T07:56:00.908Z,13.75
2019-05-19T07:58:31.450Z,13.72
2019-05-19T08:01:02.362Z,13.76
2019-05-19T08:03:32.901Z,13.78
2019-05-19T08:06:03.743Z,13.75
2019-05-19T08:08:34.264Z,13.72
2019-05-19T08:11:04.903Z,13.71
2019-05-19T08:13:35.889Z,13.74
2019-05-19T08:16:06.604Z,13.79
2019-05-19T08:18:37.376Z,13.85
2019-05-19T08:21:08.169Z,13.93
2019-05-19T08:23:38.513Z,14.01
2019-05-19T08:26:08.987Z,14.13
2019-05-19T08:28:39.545Z,14.22
2019-05-19T08:31:09.936Z,14.31
2019-05-19T08:33:40.313Z,14.32
2019-05-19T08:36:10.870Z,14.32
2019-05-19T08:38:41.044Z,14.31
2019-05-19T08:41:11.715Z,14.23
2019-05-19T08:43:42.262Z,14.27
2019-05-19T08:46:12.552Z,14.35
2019-05-19T08:48:42.839Z,14.48
2019-05-19T08:51:13.649Z,14.52
2019-05-19T08:53:44.072Z,14.45
2019-05-19T08:56:14.531Z,14.47
2019-05-19T08:58:45.131Z,14.47
2019-05-19T09:01:15.448Z,14.49
2019-05-19T09:03:46.485Z,14.41
2019-05-19T09:06:17.213Z,14.39
2019-05-19T09:08:47.803Z,14.49
2019-05-19T09:11:18.150Z,14.45
2019-05-19T09:13:48.675Z,14.52
2019-05-19T09:16:19.149Z,14.62
2019-05-19T09:18:50.071Z,14.71
2019-05-19T09:21:20.616Z,14.82
2019-05-19T09:23:51.058Z,14.75
2019-05-19T09:26:21.627Z,14.81
2019-05-19T09:28:52.121Z,14.74
2019-05-19T09:31:22.786Z,14.76
2019-05-19T09:33:53.321Z,14.78
2019-05-19T09:36:23.998Z,14.74
2019-05-19T09:38:55.037Z,14.77
2019-05-19T09:41:25.720Z,14.74
2019-05-19T09:43:56.061Z,14.73
2019-05-19T09:46:26.202Z,14.77
2019-05-19T09:49:13.866Z,14.79
2019-05-19T09:51:44.436Z,14.84
2019-05-19T09:54:14.714Z,14.98
2019-05-19T09:56:45.061Z,14.99
2019-05-19T09:59:15.787Z,15.09
2019-05-19T10:01:46.552Z,15.26
2019-05-19T10:04:17.219Z,15.44
2019-05-19T10:06:47.880Z,15.72
2019-05-19T10:09:27.675Z,16.03
2019-05-19T10:12:11.814Z,16.27
2019-05-19T10:14:42.237Z,16.44
2019-05-19T10:17:12.912Z,16.45
2019-05-19T10:19:43.522Z,16.43
2019-05-19T10:22:14.426Z,16.13
2019-05-19T10:24:57.847Z,16.30
2019-05-19T10:27:17.196Z,16.43
2019-05-19T10:29:47.526Z,16.43
2019-05-19T10:32:18.244Z,16.62
2019-05-19T10:34:48.909Z,16.92
2019-05-19T10:37:19.527Z,17.28
2019-05-19T10:39:49.889Z,17.58
2019-05-19T10:42:20.386Z,17.92
2019-05-19T10:44:51.238Z,17.83
2019-05-19T10:47:21.813Z,17.86
2019-05-19T10:49:52.326Z,17.66
2019-05-19T10:52:22.618Z,17.33
2019-05-19T10:54:53.043Z,17.02
2019-05-19T10:57:23.291Z,17.27
2019-05-19T10:59:53.838Z,17.28
2019-05-19T11:02:24.246Z,17.50
2019-05-19T11:04:54.579Z,17.95
2019-05-19T11:07:25.300Z,18.32
2019-05-19T11:09:55.921Z,18.41
2019-05-19T11:12:26.102Z,19.16
2019-05-19T11:14:56.534Z,19.39
2019-05-19T11:17:26.925Z,19.24
2019-05-19T11:19:57.310Z,19.30
2019-05-19T11:22:27.376Z,19.28
2019-05-19T11:24:58.095Z,19.31
2019-05-19T11:27:28.615Z,19.88
2019-05-19T11:29:58.801Z,20.96
2019-05-19T11:32:29.021Z,22.10
2019-05-19T11:34:59.265Z,23.04
2019-05-19T11:37:29.396Z,23.10
2019-05-19T11:39:59.560Z,22.09
2019-05-19T11:42:29.895Z,22.49
2019-05-19T11:45:00.034Z,22.24
2019-05-19T11:47:30.398Z,22.29
2019-05-19T11:50:00.850Z,22.56
2019-05-19T11:52:31.132Z,22.07
2019-05-19T11:55:01.707Z,22.06
2019-05-19T11:57:32.065Z,23.25
2019-05-19T12:00:02.277Z,22.68
2019-05-19T12:02:32.714Z,22.60
2019-05-19T12:05:02.887Z,21.82
2019-05-19T12:07:33.235Z,22.50
2019-05-19T12:10:03.704Z,21.96
2019-05-19T12:12:33.959Z,21.55
2019-05-19T12:15:04.912Z,21.49
2019-05-19T12:17:35.263Z,21.89
2019-05-19T12:20:06.166Z,21.59
2019-05-19T12:22:36.397Z,20.85
2019-05-19T12:25:07.283Z,20.29
2019-05-19T12:27:37.679Z,19.54
2019-05-19T12:30:09.573Z,19.47
2019-05-19T12:32:39.703Z,19.46
2019-05-19T12:35:10.099Z,19.74
2019-05-19T12:37:40.363Z,19.56
2019-05-19T12:40:11.788Z,19.52
2019-05-19T12:42:42.076Z,19.29
2019-05-19T12:45:13.204Z,19.13
2019-05-19T12:47:44.099Z,19.09
2019-05-19T12:50:15.059Z,19.38
2019-05-19T12:52:45.382Z,19.94
2019-05-19T12:55:15.806Z,20.40
2019-05-19T12:57:46.314Z,20.70
2019-05-19T13:00:17.096Z,21.60
2019-05-19T13:02:47.404Z,21.81
2019-05-19T13:05:17.695Z,21.93
2019-05-19T13:07:47.807Z,21.62
2019-05-19T13:10:18.322Z,21.72
2019-05-19T13:12:48.813Z,21.54
2019-05-19T13:15:19.126Z,21.59
2019-05-19T13:17:49.234Z,21.10
2019-05-19T13:20:19.565Z,20.52
2019-05-19T13:22:49.659Z,20.58
2019-05-19T13:25:19.868Z,20.65
2019-05-19T13:27:50.101Z,20.97
2019-05-19T13:30:20.209Z,21.58
2019-05-19T13:32:50.523Z,21.57
2019-05-19T13:35:20.961Z,21.59
2019-05-19T13:37:51.425Z,21.47
2019-05-19T13:40:21.823Z,21.21
2019-05-19T13:42:51.905Z,20.26
2019-05-19T13:45:22.247Z,20.47
2019-05-19T13:47:52.544Z,20.35
2019-05-19T13:50:22.902Z,20.39
2019-05-19T13:52:53.084Z,20.49
2019-05-19T13:55:23.540Z,20.73
2019-05-19T13:57:53.691Z,20.84
2019-05-19T14:00:23.957Z,21.83
2019-05-19T14:02:54.173Z,21.94
2019-05-19T14:05:24.522Z,21.35
2019-05-19T14:07:54.761Z,20.93
2019-05-19T14:10:25.063Z,21.32
2019-05-19T14:13:00.034Z,21.91
2019-05-19T14:15:30.090Z,23.71
2019-05-19T14:18:00.191Z,25.11
2019-05-19T14:20:30.688Z,26.38
2019-05-19T14:23:00.953Z,26.95
2019-05-19T14:25:31.273Z,26.62
2019-05-19T14:28:01.437Z,25.50
2019-05-19T14:30:33.208Z,23.49
2019-05-19T14:33:03.484Z,22.68
2019-05-19T14:35:33.882Z,22.21
2019-05-19T14:38:04.173Z,21.72
2019-05-19T14:40:34.373Z,21.97
2019-05-19T14:43:04.904Z,21.20
2019-05-19T14:45:36.940Z,21.10
2019-05-19T14:48:07.193Z,21.20
2019-05-19T14:50:37.509Z,21.19
2019-05-19T14:53:07.601Z,21.31
2019-05-19T14:55:37.924Z,21.39
2019-05-19T14:58:08.326Z,21.16
2019-05-19T15:00:38.620Z,20.82
2019-05-19T15:03:09.090Z,21.03
2019-05-19T15:05:39.415Z,20.96
2019-05-19T15:08:09.585Z,20.68
2019-05-19T15:10:39.682Z,20.60
2019-05-19T15:13:10.019Z,20.46
2019-05-19T15:15:40.223Z,20.25
2019-05-19T15:18:10.473Z,20.01
2019-05-19T15:20:40.829Z,19.85
2019-05-19T15:23:11.107Z,19.91
2019-05-19T15:25:41.268Z,19.81
2019-05-19T15:28:11.684Z,19.71
2019-05-19T15:30:41.720Z,19.63
2019-05-19T15:33:11.887Z,19.61
2019-05-19T15:35:41.984Z,19.61
2019-05-19T15:38:12.153Z,19.66
2019-05-19T15:40:42.354Z,19.61
2019-05-19T15:43:12.430Z,19.62
2019-05-19T15:45:42.532Z,19.58
2019-05-19T15:48:12.782Z,19.63
2019-05-19T15:50:42.962Z,19.63
2019-05-19T15:53:14.119Z,19.78
2019-05-19T15:55:44.269Z,19.71
2019-05-19T15:58:16.760Z,19.76
2019-05-19T16:00:46.602Z,19.92
2019-05-19T16:03:16.852Z,20.06
2019-05-19T16:05:47.015Z,20.09
2019-05-19T16:08:17.112Z,20.33
2019-05-19T16:10:47.420Z,20.36
2019-05-19T16:13:21.829Z,20.22
2019-05-19T16:15:49.985Z,19.97
2019-05-19T16:18:20.069Z,19.94
2019-05-19T16:20:49.994Z,19.92
2019-05-19T16:23:20.050Z,19.95
2019-05-19T16:25:50.079Z,19.93
2019-05-19T16:28:30.215Z,19.84
2019-05-19T16:30:51.883Z,19.74
2019-05-19T16:33:24.913Z,19.85
2019-05-19T16:35:55.439Z,19.86
2019-05-19T16:38:25.661Z,19.64
2019-05-19T16:40:55.920Z,19.66
2019-05-19T16:43:26.061Z,19.41
2019-05-19T16:45:56.579Z,19.24
2019-05-19T16:48:26.820Z,19.16
2019-05-19T16:50:57.075Z,19.06
2019-05-19T16:53:27.555Z,19.05
2019-05-19T16:55:57.760Z,19.15
2019-05-19T16:58:27.788Z,19.39
2019-05-19T17:00:58.991Z,19.38
2019-05-19T17:03:29.270Z,19.31
2019-05-19T17:05:59.513Z,19.17
2019-05-19T17:08:29.599Z,19.06
2019-05-19T17:11:00.080Z,19.16
2019-05-19T17:13:30.068Z,18.96
2019-05-19T17:16:00.320Z,18.93
2019-05-19T17:18:30.582Z,18.86
2019-05-19T17:21:01.713Z,18.85
2019-05-19T17:23:32.007Z,18.98
2019-05-19T17:26:02.085Z,18.99
2019-05-19T17:28:32.473Z,18.99
2019-05-19T17:31:02.679Z,19.10
2019-05-19T17:33:33.159Z,19.13
2019-05-19T17:36:03.395Z,19.05
2019-05-19T17:38:33.782Z,18.99
2019-05-19T17:41:04.304Z,18.66
2019-05-19T17:43:34.479Z,18.53
2019-05-19T17:46:04.985Z,18.49
2019-05-19T17:48:35.321Z,18.35
2019-05-19T17:51:06.244Z,18.29
2019-05-19T17:53:36.531Z,18.13
2019-05-19T17:56:06.992Z,17.92
2019-05-19T17:58:37.514Z,17.79
2019-05-19T18:01:07.784Z,17.62
2019-05-19T18:03:39.905Z,17.51
2019-05-19T18:06:10.375Z,17.35
2019-05-19T18:08:40.505Z,17.20
2019-05-19T18:11:10.885Z,17.08
2019-05-19T18:13:41.237Z,16.99
2019-05-19T18:16:11.557Z,16.93
2019-05-19T18:18:41.697Z,16.88
2019-05-19T18:21:11.876Z,16.81
2019-05-19T18:23:42.238Z,16.77
2019-05-19T18:26:13.069Z,16.71
2019-05-19T18:28:43.625Z,16.67
2019-05-19T18:31:14.421Z,16.65
2019-05-19T18:33:44.691Z,16.64
2019-05-19T18:36:15.079Z,16.63
2019-05-19T18:38:45.579Z,16.62
2019-05-19T18:41:15.768Z,16.66
2019-05-19T18:43:45.905Z,16.60
2019-05-19T18:46:16.353Z,16.58
2019-05-19T18:48:46.542Z,16.52
2019-05-19T18:51:16.802Z,16.50
2019-05-19T18:53:47.140Z,16.44
2019-05-19T18:56:17.435Z,16.36
2019-05-19T18:58:47.874Z,16.27
2019-05-19T19:01:18.492Z,16.20
2019-05-19T19:03:49.544Z,16.13
2019-05-19T19:06:20.498Z,16.08
2019-05-19T19:08:51.076Z,16.08
2019-05-19T19:11:21.777Z,16.02
2019-05-19T19:13:52.482Z,15.99
2019-05-19T19:16:22.653Z,15.95
2019-05-19T19:18:53.011Z,15.92
2019-05-19T19:21:23.636Z,15.83
2019-05-19T19:23:54.218Z,15.75
2019-05-19T19:26:24.630Z,15.67
2019-05-19T19:28:54.995Z,15.62
2019-05-19T19:31:25.501Z,15.57
2019-05-19T19:33:55.912Z,15.52
2019-05-19T19:36:26.496Z,15.47
2019-05-19T19:38:56.533Z,15.40
2019-05-19T19:41:26.385Z,15.37
2019-05-19T19:43:56.483Z,15.32
2019-05-19T19:46:27.005Z,15.27
2019-05-19T19:48:56.612Z,15.23
2019-05-19T19:51:26.334Z,15.24
2019-05-19T19:53:56.172Z,15.23
2019-05-19T19:56:25.977Z,15.18
2019-05-19T19:58:55.997Z,15.15
2019-05-19T20:01:25.679Z,15.11
2019-05-19T20:03:55.299Z,15.09
2019-05-19T20:06:24.864Z,15.07
2019-05-19T20:08:54.662Z,15.02
2019-05-19T20:11:24.352Z,14.99
2019-05-19T20:13:54.061Z,15.04
2019-05-19T20:16:23.767Z,15.06
2019-05-19T20:18:53.539Z,15.04
2019-05-19T20:21:23.380Z,15.07
2019-05-19T20:23:52.991Z,15.07
2019-05-19T20:26:22.764Z,15.13
2019-05-19T20:28:52.436Z,15.16
2019-05-19T20:31:22.118Z,15.16
2019-05-19T20:33:52.086Z,15.17
2019-05-19T20:36:21.859Z,15.21
2019-05-19T20:38:51.788Z,15.17
2019-05-19T20:41:21.727Z,15.10
2019-05-19T20:43:51.416Z,15.10
2019-05-19T20:46:21.088Z,15.09
2019-05-19T20:48:50.770Z,15.09
2019-05-19T20:51:20.459Z,15.06
2019-05-19T20:53:53.149Z,15.04
2019-05-19T20:56:21.694Z,15.08
2019-05-19T20:58:51.528Z,15.10
2019-05-19T21:01:21.296Z,15.08
2019-05-19T21:03:51.201Z,15.01
2019-05-19T21:06:20.785Z,14.96
2019-05-19T21:08:50.427Z,14.90
2019-05-19T21:11:20.415Z,14.86
2019-05-19T21:13:50.074Z,14.84
2019-05-19T21:16:19.794Z,14.82
2019-05-19T21:18:49.586Z,14.72
2019-05-19T21:21:19.422Z,14.58
2019-05-19T21:23:49.133Z,14.47
2019-05-19T21:26:19.001Z,14.41
2019-05-19T21:28:48.638Z,14.34
2019-05-19T21:31:18.441Z,14.30
2019-05-19T21:33:48.039Z,14.26
2019-05-19T21:36:17.676Z,14.22
2019-05-19T21:38:47.432Z,14.19
2019-05-19T21:41:17.082Z,14.20
2019-05-19T21:43:46.756Z,14.21
2019-05-19T21:46:16.553Z,14.24
2019-05-19T21:48:46.245Z,14.27
2019-05-19T21:51:15.902Z,14.29
2019-05-19T21:53:45.696Z,14.31
2019-05-19T21:56:15.600Z,14.31
2019-05-19T21:58:45.244Z,14.33
2019-05-19T22:01:23.154Z,14.32
2019-05-19T22:03:46.711Z,14.28
2019-05-19T22:06:19.567Z,14.25
2019-05-19T22:08:49.291Z,14.24
2019-05-19T22:11:19.039Z,14.19
2019-05-19T22:13:49.368Z,14.15
2019-05-19T22:16:19.274Z,14.15
2019-05-19T22:18:48.992Z,14.13
2019-05-19T22:21:18.666Z,14.09
2019-05-19T22:23:48.547Z,14.03
2019-05-19T22:26:18.205Z,13.99
2019-05-19T22:28:48.053Z,13.99
2019-05-19T22:31:17.826Z,14.00
2019-05-19T22:33:47.616Z,14.00
2019-05-19T22:36:17.476Z,14.07
2019-05-19T22:38:47.216Z,14.15
2019-05-19T22:41:17.188Z,14.22
2019-05-19T22:43:47.104Z,14.23
2019-05-19T22:46:16.856Z,14.26
2019-05-19T22:48:46.810Z,14.23
2019-05-19T22:51:16.522Z,14.18
2019-05-19T22:53:46.342Z,14.13
2019-05-19T22:56:16.113Z,14.09
2019-05-19T22:58:45.723Z,14.01
2019-05-19T23:01:15.425Z,13.92
2019-05-19T23:03:45.292Z,13.76
2019-05-19T23:06:14.997Z,13.62
2019-05-19T23:08:44.746Z,13.49
2019-05-19T23:11:14.538Z,13.40
2019-05-19T23:13:44.316Z,13.46
2019-05-19T23:16:14.060Z,13.50
2019-05-19T23:18:43.828Z,13.55
2019-05-19T23:21:13.740Z,13.58
2019-05-19T23:23:43.631Z,13.58
2019-05-19T23:26:13.727Z,13.54
2019-05-19T23:28:43.548Z,13.45
2019-05-19T23:31:13.524Z,13.36
2019-05-19T23:33:43.339Z,13.26
2019-05-19T23:36:12.954Z,13.17
2019-05-19T23:38:42.751Z,13.05
2019-05-19T23:41:12.696Z,12.95
2019-05-19T23:43:42.291Z,12.86
2019-05-19T23:46:12.151Z,12.80
2019-05-19T23:48:41.818Z,12.74
2019-05-19T23:51:11.564Z,12.65
2019-05-19T23:53:41.231Z,12.59
2019-05-19T23:56:11.189Z,12.60
2019-05-19T23:58:41.111Z,12.61
